Time;durP1;ratioP1;P1;durP2;ratioP2;P2;SDS_P1;SDS_P2;PMS_P1;PMS_P2;Temp;Humidity;BMP_temperature;BMP_pressure;BME280_temperature;BME280_humidity;BME280_pressure;Samples;Min_cycle;Max_cycle;Signal;HPM_P1;HPM_P2
2023/12/29 00:01:31;;;;;;;3.65;1.05;;;;;;;9.68;87.39;99902.66;5202652;28;20542;-75
2023/12/29 00:04:01;;;;;;;2.25;0.88;;;;;;;9.63;88.06;99888.13;5197421;28;20824;-75
2023/12/29 00:06:31;;;;;;;4.35;1.08;;;;;;;9.60;87.85;99878.66;5200363;28;20033;-76
2023/12/29 00:09:02;;;;;;;2.50;0.90;;;;;;;9.52;88.33;99869.47;5199250;28;20486;-75
2023/12/29 00:11:33;;;;;;;2.13;0.70;;;;;;;9.55;88.95;99877.16;5201115;28;20109;-75
2023/12/29 00:14:03;;;;;;;4.38;0.88;;;;;;;9.59;88.42;99886.53;5200756;28;20535;-74
2023/12/29 00:16:33;;;;;;;1.58;0.77;;;;;;;9.59;87.55;99883.94;5201972;28;20482;-75
2023/12/29 00:19:04;;;;;;;3.55;0.98;;;;;;;9.58;88.13;99885.72;5204541;28;20394;-75
2023/12/29 00:21:36;;;;;;;1.98;0.80;;;;;;;9.67;88.05;99885.31;5198876;28;20487;-74
2023/12/29 00:24:06;;;;;;;2.17;0.80;;;;;;;9.67;87.86;99889.69;5200678;28;20025;-75
2023/12/29 00:26:36;;;;;;;3.97;0.98;;;;;;;9.59;87.66;99895.25;5200604;28;20091;-75
2023/12/29 00:29:07;;;;;;;2.70;1.02;;;;;;;9.60;88.04;99890.84;5199944;28;20053;-75
2023/12/29 00:31:38;;;;;;;5.55;0.88;;;;;;;9.63;88.00;99898.56;5201922;28;20032;-75
2023/12/29 00:34:08;;;;;;;3.97;1.05;;;;;;;9.69;88.68;99891.31;5202367;28;20090;-75
2023/12/29 00:36:38;;;;;;;4.00;0.80;;;;;;;9.68;87.87;99875.72;5202086;28;20017;-75
2023/12/29 00:39:09;;;;;;;3.08;1.10;;;;;;;9.70;88.12;99882.59;5199075;28;20029;-75
2023/12/29 00:41:40;;;;;;;2.63;1.00;;;;;;;9.69;88.15;99890.47;5199611;28;20025;-76
2023/12/29 00:44:10;;;;;;;3.13;1.00;;;;;;;9.65;88.42;99883.69;5197093;28;20495;-75
2023/12/29 00:46:41;;;;;;;2.38;0.98;;;;;;;9.65;87.99;99892.34;5199997;28;20037;-75
2023/12/29 00:49:11;;;;;;;2.63;0.77;;;;;;;9.77;87.40;99890.97;5198833;28;20136;-75
2023/12/29 00:51:41;;;;;;;3.08;0.90;;;;;;;9.86;86.51;99877.53;5200592;28;20033;-75
2023/12/29 00:54:11;;;;;;;3.80;1.05;;;;;;;9.86;86.40;99878.38;5198933;28;20304;-75
2023/12/29 00:56:47;;;;;;;3.65;1.08;;;;;;;9.81;86.68;99877.75;5198741;28;20104;-74
2023/12/29 00:59:18;;;;;;;;;;;;;;;9.90;86.20;99868.66;5199005;28;20598;-75
2023/12/29 01:01:49;;;;;;;3.47;0.80;;;;;;;9.85;86.25;99870.63;5197833;28;19931;-74
2023/12/29 01:04:19;;;;;;;4.72;0.80;;;;;;;9.92;86.30;99869.44;5189357;28;20029;-75
2023/12/29 01:06:49;;;;;;;2.55;0.82;;;;;;;9.93;85.89;99871.13;5195396;28;20540;-75
2023/12/29 01:09:20;;;;;;;7.55;1.08;;;;;;;9.88;86.01;99865.28;5201552;28;20063;-76
2023/12/29 01:11:50;;;;;;;1.88;0.70;;;;;;;9.91;86.19;99862.53;5199085;28;20076;-75
2023/12/29 01:14:20;;;;;;;3.30;0.95;;;;;;;9.94;86.04;99865.00;5194239;28;20048;-76
2023/12/29 01:16:50;;;;;;;4.13;1.10;;;;;;;10.02;85.97;99847.28;5200898;28;20558;-75
2023/12/29 01:19:21;;;;;;;4.35;1.00;;;;;;;9.97;85.95;99846.63;5209895;28;20494;-75
2023/12/29 01:21:51;;;;;;;2.50;0.93;;;;;;;9.95;85.56;99853.63;5205835;28;20087;-74
2023/12/29 01:24:21;;;;;;;4.70;1.20;;;;;;;9.99;84.90;99845.59;5209748;28;20280;-75
2023/12/29 01:26:52;;;;;;;4.13;1.08;;;;;;;9.87;85.71;99845.31;5209840;28;20025;-75
2023/12/29 01:29:22;;;;;;;3.20;0.98;;;;;;;9.96;86.06;99829.25;5207813;28;20155;-75
2023/12/29 01:31:52;;;;;;;2.85;0.70;;;;;;;9.98;86.43;99835.25;5211541;28;20397;-75
2023/12/29 01:34:23;;;;;;;3.50;1.00;;;;;;;9.85;86.33;99841.94;5208616;28;20017;-75
2023/12/29 01:36:53;;;;;;;3.40;1.20;;;;;;;9.81;86.45;99819.50;5209054;28;20045;-75
2023/12/29 01:39:23;;;;;;;3.67;1.00;;;;;;;9.74;87.08;99834.56;5212336;28;20052;-75
2023/12/29 01:41:58;;;;;;;3.17;0.88;;;;;;;9.71;87.22;99831.25;5212007;28;20168;-75
2023/12/29 01:44:28;;;;;;;4.03;0.90;;;;;;;9.79;87.17;99831.78;5236524;22;21052;-75
2023/12/29 01:47:00;;;;;;;2.42;0.70;;;;;;;9.76;87.57;99826.66;5206150;28;20539;-74
2023/12/29 01:49:33;;;;;;;3.20;0.70;;;;;;;9.73;87.50;99832.03;5207499;28;20387;-75
2023/12/29 01:52:04;;;;;;;3.03;0.85;;;;;;;9.72;87.91;99830.31;5207461;28;20056;-74
2023/12/29 01:54:38;;;;;;;3.03;1.00;;;;;;;9.69;88.01;99825.25;5211871;28;20280;-74
2023/12/29 01:57:08;;;;;;;3.47;0.88;;;;;;;9.65;87.29;99810.66;5211418;28;20024;-75
2023/12/29 01:59:40;;;;;;;2.50;0.85;;;;;;;9.62;88.00;99810.78;5212594;28;20983;-74
2023/12/29 02:02:10;;;;;;;5.45;1.10;;;;;;;9.64;87.90;99801.97;5209428;28;20032;-75
2023/12/29 02:04:41;;;;;;;1.55;0.77;;;;;;;9.64;87.72;99799.34;5211380;28;20471;-75
2023/12/29 02:07:11;;;;;;;1.92;0.80;;;;;;;9.66;87.68;99807.13;5211852;28;20029;-75
2023/12/29 02:09:42;;;;;;;2.83;0.80;;;;;;;9.70;87.25;99806.94;5206983;28;20199;-75
2023/12/29 02:12:12;;;;;;;2.35;0.70;;;;;;;9.74;87.77;99818.06;5213478;28;20386;-75
2023/12/29 02:14:43;;;;;;;4.50;1.10;;;;;;;9.73;88.11;99814.63;5212971;28;20110;-75
2023/12/29 02:17:27;;;;;;;4.22;0.88;;;;;;;9.78;88.44;99815.25;5210577;28;20175;-75
2023/12/29 02:19:58;;;;;;;2.20;0.70;;;;;;;9.82;87.84;99798.53;5213364;28;20086;-75
2023/12/29 02:22:28;;;;;;;4.95;0.80;;;;;;;9.84;89.40;99794.09;5207798;28;20660;-74
2023/12/29 02:24:58;;;;;;;3.35;0.73;;;;;;;9.78;90.04;99793.53;5210311;28;20056;-75
2023/12/29 02:27:47;;;;;;;3.00;0.82;;;;;;;9.73;90.83;99791.13;5209144;28;20036;-75
2023/12/29 02:30:34;;;;;;;3.33;0.73;;;;;;;9.76;90.41;99780.56;5212354;28;20054;-74
2023/12/29 02:33:07;;;;;;;5.28;0.98;;;;;;;9.79;90.54;99782.19;5206838;28;20103;-74
2023/12/29 02:35:40;;;;;;;1.88;0.68;;;;;;;9.78;90.16;99767.44;5209483;28;20022;-75
2023/12/29 02:38:12;;;;;;;2.97;0.80;;;;;;;9.82;90.23;99769.00;5208557;28;20041;-75
2023/12/29 02:40:42;;;;;;;1.75;0.60;;;;;;;9.73;90.44;99764.19;5210066;28;20023;-75
2023/12/29 02:43:13;;;;;;;5.55;1.00;;;;;;;9.75;90.35;99780.63;5212831;28;20238;-75
2023/12/29 02:45:43;;;;;;;3.05;0.70;;;;;;;9.73;90.26;99772.88;5208533;28;20025;-75
2023/12/29 02:48:13;;;;;;;2.38;0.80;;;;;;;9.81;89.96;99770.75;5210176;28;20497;-74
2023/12/29 02:50:44;;;;;;;2.53;0.65;;;;;;;9.75;90.72;99765.81;5206742;28;20020;-74
2023/12/29 02:53:14;;;;;;;3.03;1.00;;;;;;;9.78;90.38;99763.06;5211057;28;20074;-75
2023/12/29 02:55:44;;;;;;;1.52;0.68;;;;;;;9.89;90.51;99762.59;5211198;28;20076;-75
2023/12/29 02:58:15;;;;;;;3.15;0.63;;;;;;;9.82;90.12;99761.19;5212394;28;20221;-75
2023/12/29 03:00:45;;;;;;;2.83;0.70;;;;;;;9.86;90.45;99762.72;5207432;28;20029;-75
2023/12/29 03:03:15;;;;;;;4.57;0.88;;;;;;;9.88;90.66;99756.53;5206680;28;20418;-74
2023/12/29 03:05:46;;;;;;;2.00;0.68;;;;;;;9.90;90.46;99752.09;5205269;28;20041;-74
2023/12/29 03:08:16;;;;;;;5.03;0.90;;;;;;;9.95;90.38;99757.06;5211509;28;20132;-75
2023/12/29 03:10:46;;;;;;;2.40;0.60;;;;;;;9.92;90.34;99752.00;5208984;28;20033;-74
2023/12/29 03:13:16;;;;;;;3.08;0.80;;;;;;;9.84;90.22;99759.34;5209510;28;20068;-75
2023/12/29 03:15:47;;;;;;;3.00;0.70;;;;;;;9.82;90.94;99753.34;5215685;28;20035;-75
2023/12/29 03:18:17;;;;;;;1.92;0.80;;;;;;;9.87;90.34;99746.16;5210557;28;20087;-74
2023/12/29 03:20:47;;;;;;;1.58;0.65;;;;;;;9.88;91.05;99753.91;5208682;28;20033;-76
2023/12/29 03:23:17;;;;;;;2.80;0.55;;;;;;;9.91;90.85;99752.91;5209208;28;20027;-75
2023/12/29 03:25:48;;;;;;;2.35;0.60;;;;;;;10.00;90.86;99752.50;5207882;28;20037;-75
2023/12/29 03:28:18;;;;;;;2.35;0.70;;;;;;;9.98;90.88;99760.38;5211642;28;20032;-75
2023/12/29 03:30:48;;;;;;;0.60;0.45;;;;;;;9.96;91.21;99750.97;5206317;28;20550;-75
2023/12/29 03:33:19;;;;;;;2.22;0.60;;;;;;;10.07;90.76;99748.72;5207329;28;20395;-75
2023/12/29 03:35:49;;;;;;;2.22;0.68;;;;;;;10.05;90.07;99755.78;5209728;28;20511;-75
2023/12/29 03:38:19;;;;;;;1.77;0.70;;;;;;;10.07;90.85;99743.50;5209984;28;20059;-75
2023/12/29 03:40:49;;;;;;;2.75;0.50;;;;;;;10.09;90.23;99739.03;5206243;28;20025;-75
2023/12/29 03:43:20;;;;;;;1.40;0.50;;;;;;;10.05;91.36;99737.50;5206366;28;20053;-75
2023/12/29 03:45:50;;;;;;;4.18;1.05;;;;;;;10.09;90.61;99729.47;5207170;28;20594;-75
2023/12/29 03:48:20;;;;;;;1.83;0.55;;;;;;;10.12;91.74;99738.88;5210784;28;20030;-75
2023/12/29 03:50:51;;;;;;;2.83;0.50;;;;;;;10.12;91.12;99726.69;5208741;28;20171;-75
2023/12/29 03:53:21;;;;;;;1.60;0.40;;;;;;;10.16;90.89;99702.13;5207556;28;20039;-75
2023/12/29 03:55:52;;;;;;;1.58;0.60;;;;;;;10.21;90.76;99701.91;5205682;28;20623;-75
2023/12/29 03:58:22;;;;;;;3.63;0.50;;;;;;;10.13;90.91;99701.47;5209192;28;20040;-75
2023/12/29 04:00:52;;;;;;;4.07;0.60;;;;;;;10.15;90.89;99690.00;5205080;28;20025;-75
2023/12/29 04:03:23;;;;;;;2.25;0.65;;;;;;;10.14;91.15;99688.31;5208800;28;20372;-74
2023/12/29 04:05:53;;;;;;;2.65;0.55;;;;;;;10.24;90.84;99712.22;5206736;28;20025;-75
2023/12/29 04:08:24;;;;;;;0.63;0.32;;;;;;;10.21;90.20;99688.88;5209089;28;20112;-75
2023/12/29 04:10:54;;;;;;;1.98;0.80;;;;;;;10.24;90.45;99691.31;5205179;28;20025;-74
2023/12/29 04:13:24;;;;;;;1.73;0.52;;;;;;;10.26;90.32;99694.69;5207928;28;20048;-75
2023/12/29 04:15:55;;;;;;;3.78;0.50;;;;;;;10.27;91.28;99705.09;5203271;28;20068;-74
2023/12/29 04:18:25;;;;;;;1.85;0.40;;;;;;;10.17;92.07;99724.72;5208404;28;20025;-75
2023/12/29 04:20:56;;;;;;;3.15;0.50;;;;;;;10.19;92.23;99712.41;5210361;28;20028;-73
2023/12/29 04:23:26;;;;;;;1.33;0.50;;;;;;;10.19;93.54;99707.19;5209438;28;20037;-75
2023/12/29 04:25:56;;;;;;;1.85;0.52;;;;;;;10.13;95.24;99711.91;5207512;28;20029;-74
2023/12/29 04:28:27;;;;;;;2.67;0.60;;;;;;;10.05;95.80;99727.06;5208795;28;20025;-75
2023/12/29 04:30:57;;;;;;;2.33;0.65;;;;;;;10.04;96.00;99720.16;5206048;28;20125;-75
2023/12/29 04:33:27;;;;;;;2.70;0.57;;;;;;;10.05;96.34;99719.22;5208095;28;20497;-75
2023/12/29 04:35:57;;;;;;;1.73;0.50;;;;;;;10.04;99.01;99688.81;5206769;28;20025;-76
2023/12/29 04:38:28;;;;;;;1.00;0.57;;;;;;;9.88;100.00;99706.09;5207138;28;20516;-75
2023/12/29 04:40:58;;;;;;;1.92;0.52;;;;;;;9.83;100.00;99710.69;5207146;28;20221;-74
2023/12/29 04:43:28;;;;;;;1.27;0.50;;;;;;;9.71;100.00;99719.94;5209566;28;20250;-75
2023/12/29 04:45:59;;;;;;;3.30;0.65;;;;;;;9.64;100.00;99725.50;5206861;28;20035;-74
2023/12/29 04:48:29;;;;;;;4.78;0.60;;;;;;;9.56;100.00;99738.00;5209178;28;20387;-75
2023/12/29 04:50:59;;;;;;;2.13;0.68;;;;;;;9.62;100.00;99720.31;5206413;28;20033;-76
2023/12/29 04:53:29;;;;;;;3.30;0.50;;;;;;;9.58;100.00;99715.31;5207168;28;20565;-75
2023/12/29 04:56:00;;;;;;;6.45;0.70;;;;;;;9.60;100.00;99684.78;5206055;28;20025;-75
2023/12/29 04:58:30;;;;;;;5.47;0.88;;;;;;;9.55;100.00;99664.16;5208336;28;20168;-75
2023/12/29 05:01:00;;;;;;;2.25;0.77;;;;;;;9.48;100.00;99659.28;5207616;28;20022;-75
2023/12/29 05:03:31;;;;;;;2.13;0.65;;;;;;;9.42;100.00;99655.19;5208380;28;20104;-75
2023/12/29 05:06:01;;;;;;;3.53;0.50;;;;;;;9.45;100.00;99669.88;5205255;28;20060;-75
2023/12/29 05:08:32;;;;;;;5.80;0.90;;;;;;;9.52;100.00;99685.13;5207616;28;20481;-75
2023/12/29 05:11:02;;;;;;;1.08;0.55;;;;;;;9.52;100.00;99686.91;5207290;28;20033;-75
2023/12/29 05:13:33;;;;;;;1.75;0.57;;;;;;;9.47;100.00;99689.72;5205490;28;20032;-75
2023/12/29 05:16:03;;;;;;;2.58;0.80;;;;;;;9.53;100.00;99699.03;5206683;28;20036;-75
2023/12/29 05:18:34;;;;;;;2.03;0.60;;;;;;;9.58;100.00;99703.13;5207467;28;20080;-75
2023/12/29 05:21:05;;;;;;;1.90;0.50;;;;;;;9.57;100.00;99698.84;5203748;28;20025;-75
2023/12/29 05:23:35;;;;;;;1.65;0.60;;;;;;;9.62;100.00;99698.63;5206527;28;20025;-75
2023/12/29 05:26:06;;;;;;;2.92;1.17;;;;;;;9.58;100.00;99710.97;5206656;28;20322;-75
2023/12/29 05:28:36;;;;;;;1.73;0.55;;;;;;;9.55;100.00;99707.63;5209796;28;20029;-75
2023/12/29 05:31:06;;;;;;;2.40;0.70;;;;;;;9.56;100.00;99704.09;5207932;28;20032;-75
2023/12/29 05:33:37;;;;;;;1.17;0.55;;;;;;;9.59;100.00;99697.00;5206404;28;20024;-75
2023/12/29 05:36:09;;;;;;;2.08;0.77;;;;;;;9.59;100.00;99698.75;5206435;28;20037;-75
2023/12/29 05:38:41;;;;;;;3.40;0.80;;;;;;;9.60;100.00;99697.81;5205182;28;20044;-75
2023/12/29 05:41:13;;;;;;;5.35;0.80;;;;;;;9.61;100.00;99699.50;5207326;28;20116;-75
2023/12/29 05:43:43;;;;;;;1.15;0.57;;;;;;;9.58;100.00;99707.50;5206782;28;20553;-75
2023/12/29 05:46:13;;;;;;;2.05;0.70;;;;;;;9.59;100.00;99715.25;5208427;28;20029;-75
2023/12/29 05:48:44;;;;;;;1.85;0.80;;;;;;;9.55;100.00;99713.72;5207108;28;20452;-75
2023/12/29 05:51:14;;;;;;;1.67;0.40;;;;;;;9.51;100.00;99717.34;5206769;28;20394;-75
2023/12/29 05:53:44;;;;;;;2.47;0.90;;;;;;;9.57;100.00;99722.31;5206605;28;20038;-75
2023/12/29 05:56:15;;;;;;;3.15;0.70;;;;;;;9.49;100.00;99713.13;5207707;28;20490;-75
2023/12/29 05:58:45;;;;;;;2.40;1.17;;;;;;;9.55;100.00;99718.94;5207532;28;20092;-75
2023/12/29 06:01:16;;;;;;;2.80;1.10;;;;;;;9.40;100.00;99726.56;5207468;28;20021;-75
2023/12/29 06:03:46;;;;;;;4.15;1.00;;;;;;;9.42;100.00;99727.34;5205778;28;20033;-75
2023/12/29 06:06:16;;;;;;;3.03;0.85;;;;;;;9.40;100.00;99730.03;5209952;28;20032;-75
2023/12/29 06:08:46;;;;;;;4.72;1.30;;;;;;;9.46;100.00;99737.56;5209688;28;20695;-75
2023/12/29 06:11:17;;;;;;;3.53;1.27;;;;;;;9.40;100.00;99718.75;5212213;28;20478;-75
2023/12/29 06:13:47;;;;;;;2.63;0.90;;;;;;;9.32;100.00;99741.72;5210701;28;20037;-75
2023/12/29 06:16:21;;;;;;;4.03;1.30;;;;;;;9.24;100.00;99729.00;5212530;28;20452;-75
2023/12/29 06:18:51;;;;;;;5.18;1.13;;;;;;;9.17;100.00;99737.16;5210057;28;20055;-75
2023/12/29 06:21:22;;;;;;;2.88;0.95;;;;;;;9.14;100.00;99726.88;5210758;28;20025;-75
2023/12/29 06:23:52;;;;;;;1.52;0.77;;;;;;;9.16;100.00;99736.31;5209604;28;20134;-75
2023/12/29 06:26:22;;;;;;;4.13;1.10;;;;;;;9.26;100.00;99732.41;5212132;28;20025;-75
2023/12/29 06:28:53;;;;;;;1.80;0.90;;;;;;;9.34;100.00;99719.84;5207578;28;20083;-75
2023/12/29 06:31:24;;;;;;;5.45;1.00;;;;;;;9.36;100.00;99717.19;5210496;28;20043;-75
2023/12/29 06:33:55;;;;;;;5.90;0.88;;;;;;;9.29;100.00;99723.59;5209647;28;20037;-75
2023/12/29 06:36:25;;;;;;;2.90;1.10;;;;;;;9.38;100.00;99720.56;5210145;28;20032;-75
2023/12/29 06:38:56;;;;;;;4.10;0.90;;;;;;;9.28;100.00;99724.53;5208489;28;20109;-75
2023/12/29 06:41:26;;;;;;;2.85;0.90;;;;;;;9.29;100.00;99714.00;5208321;28;20431;-75
2023/12/29 06:43:56;;;;;;;4.15;1.20;;;;;;;9.30;100.00;99725.28;5209983;28;20029;-75
2023/12/29 06:46:27;;;;;;;3.10;0.80;;;;;;;9.30;100.00;99712.25;5210202;28;20395;-75
2023/12/29 06:48:58;;;;;;;3.47;1.05;;;;;;;9.39;100.00;99710.09;5210884;28;20030;-75
2023/12/29 06:51:28;;;;;;;2.78;1.40;;;;;;;9.31;100.00;99706.13;5211289;28;20025;-75
2023/12/29 06:53:59;;;;;;;2.88;0.80;;;;;;;9.37;100.00;99708.47;5210768;28;20036;-75
2023/12/29 06:56:30;;;;;;;3.30;1.10;;;;;;;9.40;100.00;99700.50;5208428;28;20047;-75
2023/12/29 06:59:00;;;;;;;3.47;0.93;;;;;;;9.34;100.00;99698.16;5208501;28;20025;-75
2023/12/29 07:01:30;;;;;;;3.25;0.85;;;;;;;9.35;100.00;99692.88;5210392;28;20021;-75
2023/12/29 07:04:01;;;;;;;3.88;1.02;;;;;;;9.32;100.00;99694.78;5209518;28;20052;-75
2023/12/29 07:06:31;;;;;;;5.22;1.25;;;;;;;9.34;100.00;99704.22;5209969;28;20021;-75
2023/12/29 07:09:02;;;;;;;2.50;0.98;;;;;;;9.23;100.00;99710.81;5209202;28;20025;-75
2023/12/29 07:11:32;;;;;;;2.47;0.90;;;;;;;9.31;100.00;99700.91;5209404;28;20456;-75
2023/12/29 07:14:02;;;;;;;4.75;1.15;;;;;;;9.34;100.00;99703.38;5208003;28;20037;-75
2023/12/29 07:16:33;;;;;;;4.30;1.00;;;;;;;9.40;100.00;99695.28;5208549;28;20025;-75
2023/12/29 07:19:03;;;;;;;2.17;0.80;;;;;;;9.40;100.00;99700.50;5210681;28;20560;-74
2023/12/29 07:21:34;;;;;;;4.13;1.08;;;;;;;9.38;100.00;99705.78;5207143;28;20158;-75
2023/12/29 07:24:05;;;;;;;3.38;0.90;;;;;;;9.42;100.00;99719.53;5209174;28;20033;-74
2023/12/29 07:26:35;;;;;;;3.40;0.90;;;;;;;9.45;100.00;99716.81;5209705;28;20116;-75
2023/12/29 07:29:06;;;;;;;3.83;0.80;;;;;;;9.53;100.00;99725.13;5208545;28;20049;-74
2023/12/29 07:31:39;;;;;;;3.47;0.80;;;;;;;9.59;100.00;99720.47;5208690;28;20029;-75
2023/12/29 07:34:10;;;;;;;3.28;1.15;;;;;;;9.60;100.00;99722.16;5208557;28;20098;-75
2023/12/29 07:36:40;;;;;;;5.43;1.20;;;;;;;9.63;100.00;99721.19;5209074;28;20033;-75
2023/12/29 07:39:10;;;;;;;5.47;1.38;;;;;;;9.68;100.00;99729.66;5210450;28;20692;-75
2023/12/29 07:41:41;;;;;;;6.78;1.90;;;;;;;9.68;100.00;99738.31;5214613;28;20032;-75
2023/12/29 07:44:12;;;;;;;7.45;1.88;;;;;;;9.71;100.00;99739.94;5209980;28;20263;-75
2023/12/29 07:46:46;;;;;;;6.43;1.10;;;;;;;9.77;100.00;99732.69;5214132;28;20082;-75
2023/12/29 07:49:17;;;;;;;4.05;1.40;;;;;;;9.83;100.00;99729.78;5210240;28;20113;-75
2023/12/29 07:51:47;;;;;;;5.25;1.20;;;;;;;9.85;100.00;99727.13;5208694;28;20544;-75
2023/12/29 07:54:17;;;;;;;4.60;1.08;;;;;;;9.87;100.00;99725.28;5209721;28;20151;-76
2023/12/29 07:56:48;;;;;;;2.92;1.00;;;;;;;9.99;100.00;99724.72;5207433;28;20029;-75
2023/12/29 07:59:18;;;;;;;6.70;1.00;;;;;;;10.07;99.97;99720.00;5209808;28;20398;-75
2023/12/29 08:01:48;;;;;;;6.15;1.02;;;;;;;10.16;98.98;99735.25;5205842;28;20040;-75
2023/12/29 08:04:18;;;;;;;5.25;1.10;;;;;;;10.32;98.08;99731.81;5211676;28;20151;-75
2023/12/29 08:06:49;;;;;;;3.83;0.93;;;;;;;10.56;97.41;99733.25;5212096;28;20112;-75
2023/12/29 08:09:20;;;;;;;7.07;1.27;;;;;;;10.56;95.82;99737.63;5207682;28;20024;-75
2023/12/29 08:11:50;;;;;;;3.30;0.82;;;;;;;10.72;95.72;99749.84;5209369;28;20033;-75
2023/12/29 08:14:21;;;;;;;3.47;1.20;;;;;;;10.80;94.29;99746.84;5210168;28;20022;-75
2023/12/29 08:16:52;;;;;;;7.57;2.25;;;;;;;10.75;94.43;99746.25;5214180;28;20049;-75
2023/12/29 08:19:22;;;;;;;4.07;1.35;;;;;;;10.56;94.97;99748.06;5212406;28;20390;-73
2023/12/29 08:21:52;;;;;;;7.15;1.75;;;;;;;10.63;94.47;99749.44;5211564;28;20060;-73
2023/12/29 08:24:23;;;;;;;5.60;1.20;;;;;;;10.62;94.31;99738.19;5211104;28;20018;-73
2023/12/29 08:26:53;;;;;;;7.70;1.80;;;;;;;10.93;93.43;99746.19;5212125;28;20044;-73
2023/12/29 08:29:25;;;;;;;7.45;1.20;;;;;;;11.26;91.29;99742.69;5211189;28;20082;-73
2023/12/29 08:31:55;;;;;;;6.00;1.35;;;;;;;11.60;88.90;99741.84;5213528;28;20026;-73
2023/12/29 08:34:26;;;;;;;5.20;1.30;;;;;;;11.74;87.49;99755.88;5207566;28;20029;-73
2023/12/29 08:36:56;;;;;;;5.22;1.17;;;;;;;11.51;87.57;99757.97;5213360;28;20033;-73
2023/12/29 08:39:26;;;;;;;5.72;0.98;;;;;;;11.61;85.71;99757.44;5210191;28;20029;-73
2023/12/29 08:41:57;;;;;;;5.75;1.20;;;;;;;11.51;87.03;99750.97;5214478;28;20028;-73
2023/12/29 08:44:27;;;;;;;5.00;1.25;;;;;;;11.34;87.46;99765.84;5207775;28;20064;-73
2023/12/29 08:46:57;;;;;;;5.50;0.85;;;;;;;11.31;87.25;99750.31;5208893;28;20021;-73
2023/12/29 08:49:28;;;;;;;5.07;1.08;;;;;;;11.28;86.80;99764.38;5212213;28;20979;-73
2023/12/29 08:51:58;;;;;;;5.45;1.20;;;;;;;11.23;87.72;99779.47;5210204;28;20033;-73
2023/12/29 08:54:28;;;;;;;5.93;1.40;;;;;;;11.32;87.90;99773.78;5209292;28;20363;-73
2023/12/29 08:56:59;;;;;;;3.97;0.90;;;;;;;11.21;87.28;99776.09;5208387;28;20037;-73
2023/12/29 08:59:29;;;;;;;6.68;1.15;;;;;;;11.18;87.42;99788.47;5209537;28;20368;-73
2023/12/29 09:02:00;;;;;;;6.63;1.02;;;;;;;11.22;87.77;99777.78;5208431;28;20372;-74
2023/12/29 09:04:30;;;;;;;5.38;0.93;;;;;;;11.22;86.89;99780.41;5208197;28;20024;-73
2023/12/29 09:07:00;;;;;;;7.60;1.08;;;;;;;11.36;87.09;99769.22;5206954;28;20029;-73
2023/12/29 09:09:31;;;;;;;4.18;0.90;;;;;;;11.28;87.05;99768.78;5209144;28;20537;-73
2023/12/29 09:12:01;;;;;;;10.18;1.50;;;;;;;11.31;87.11;99779.91;5210030;28;20490;-73
2023/12/29 09:14:34;;;;;;;6.35;1.25;;;;;;;11.36;86.06;99775.31;5207301;28;20075;-73
2023/12/29 09:17:05;;;;;;;5.43;1.17;;;;;;;11.21;87.09;99768.25;5210888;28;20070;-73
2023/12/29 09:19:35;;;;;;;9.57;1.38;;;;;;;11.34;85.65;99771.94;5219754;28;20482;-74
2023/12/29 09:22:05;;;;;;;4.72;1.10;;;;;;;11.39;85.83;99780.38;5208560;28;20116;-73
2023/12/29 09:24:36;;;;;;;8.23;1.35;;;;;;;11.38;85.45;99768.22;5207021;28;20025;-73
2023/12/29 09:27:06;;;;;;;5.03;1.00;;;;;;;11.39;84.95;99756.84;5209978;28;20107;-73
2023/12/29 09:29:37;;;;;;;4.78;0.90;;;;;;;11.43;84.74;99737.44;5206250;28;20542;-73
2023/12/29 09:32:07;;;;;;;8.02;1.20;;;;;;;11.60;83.85;99740.03;5209749;28;20398;-73
2023/12/29 09:34:37;;;;;;;5.50;1.13;;;;;;;11.66;83.99;99736.25;5211266;28;20461;-73
2023/12/29 09:37:08;;;;;;;5.07;1.25;;;;;;;11.82;84.52;99739.75;5210678;28;20025;-73
2023/12/29 09:39:38;;;;;;;6.55;1.55;;;;;;;11.87;84.57;99729.88;5207957;28;20459;-74
2023/12/29 09:42:17;;;;;;;7.53;1.58;;;;;;;11.80;85.51;99733.75;5213516;28;20032;-73
2023/12/29 09:44:51;;;;;;;7.25;1.15;;;;;;;11.71;86.00;99745.56;5211043;28;20040;-73
2023/12/29 09:47:25;;;;;;;6.65;0.90;;;;;;;11.67;85.07;99744.03;5213250;28;20029;-73
2023/12/29 09:49:55;;;;;;;5.38;0.80;;;;;;;11.62;86.42;99756.50;5213437;28;20053;-74
2023/12/29 09:52:26;;;;;;;5.75;1.00;;;;;;;11.54;85.52;99744.72;5216441;28;20443;-73
2023/12/29 09:54:57;;;;;;;5.45;0.85;;;;;;;11.53;85.93;99756.09;5213750;28;20041;-73
2023/12/29 09:57:27;;;;;;;4.35;0.90;;;;;;;11.43;87.13;99776.69;5212524;28;20113;-73
2023/12/29 09:59:58;;;;;;;5.55;1.20;;;;;;;11.46;86.38;99763.44;5214902;28;20112;-73
2023/12/29 10:02:30;;;;;;;5.43;1.10;;;;;;;11.44;86.72;99752.19;5216314;28;20104;-72
2023/12/29 10:05:03;;;;;;;6.15;1.10;;;;;;;11.28;89.16;99777.47;5211973;28;20466;-73
2023/12/29 10:07:37;;;;;;;5.50;1.30;;;;;;;11.22;90.85;99762.09;5214344;28;20499;-73
2023/12/29 10:10:14;;;;;;;4.55;0.80;;;;;;;11.14;92.67;99774.69;5212008;28;20021;-73
2023/12/29 10:12:47;;;;;;;3.17;0.80;;;;;;;11.02;95.55;99780.56;5201863;28;20041;-73
2023/12/29 10:15:35;;;;;;;4.85;0.95;;;;;;;10.77;96.16;99786.22;5214978;28;20029;-73
2023/12/29 10:18:22;;;;;;;5.80;1.38;;;;;;;10.71;97.44;99781.31;5214980;28;20044;-73
2023/12/29 10:21:06;;;;;;;11.38;2.63;;;;;;;10.47;97.82;99785.06;5213583;28;20075;-73
2023/12/29 10:23:43;;;;;;;10.90;3.78;;;;;;;10.42;100.00;99787.06;5223826;28;20032;-73
2023/12/29 10:26:15;;;;;;;15.43;4.53;;;;;;;10.35;100.00;99788.28;5213561;28;20017;-75
2023/12/29 10:28:47;;;;;;;11.80;3.00;;;;;;;10.30;100.00;99778.06;5212742;28;20489;-75
2023/12/29 10:31:18;;;;;;;10.80;3.67;;;;;;;10.20;100.00;99774.16;5211496;28;20037;-75
2023/12/29 10:33:51;;;;;;;16.50;3.30;;;;;;;10.17;100.00;99763.03;5210191;28;20025;-75
2023/12/29 10:36:21;;;;;;;9.00;2.30;;;;;;;10.29;100.00;99744.16;5212990;28;20440;-75
2023/12/29 10:39:07;;;;;;;4.28;1.20;;;;;;;10.26;100.00;99752.16;5215645;28;20048;-75
2023/12/29 10:41:37;;;;;;;1.50;0.73;;;;;;;10.19;100.00;99751.59;5210315;28;20014;-75
2023/12/29 10:44:08;;;;;;;3.63;0.52;;;;;;;10.08;100.00;99739.97;5214283;28;20487;-75
2023/12/29 10:46:38;;;;;;;5.65;0.65;;;;;;;10.20;100.00;99755.06;5212799;28;20031;-75
2023/12/29 10:49:13;;;;;;;3.85;0.63;;;;;;;10.21;100.00;99756.75;5215207;28;20036;-75
2023/12/29 10:51:43;;;;;;;4.18;0.75;;;;;;;10.21;100.00;99761.97;5210069;28;20119;-76
2023/12/29 10:54:23;;;;;;;4.72;0.75;;;;;;;10.42;100.00;99753.97;5211561;28;20111;-75
2023/12/29 10:57:02;;;;;;;2.72;0.50;;;;;;;10.49;100.00;99739.69;5210950;28;20068;-75
2023/12/29 10:59:32;;;;;;;4.25;0.70;;;;;;;10.41;100.00;99744.44;5206820;28;20029;-75
2023/12/29 11:02:03;;;;;;;3.80;0.90;;;;;;;10.46;100.00;99741.59;5210474;28;20035;-76
2023/12/29 11:04:33;;;;;;;3.78;0.95;;;;;;;10.53;100.00;99735.16;5209167;28;20029;-75
2023/12/29 11:07:04;;;;;;;4.40;0.85;;;;;;;10.38;100.00;99734.13;5210495;28;20083;-76
2023/12/29 11:09:34;;;;;;;2.05;0.63;;;;;;;10.42;100.00;99735.69;5212782;28;20017;-76
2023/12/29 11:12:05;;;;;;;3.28;0.93;;;;;;;10.57;100.00;99737.56;5211202;28;20029;-76
2023/12/29 11:14:37;;;;;;;2.65;0.80;;;;;;;10.61;100.00;99736.47;5210753;28;20071;-76
2023/12/29 11:17:09;;;;;;;6.03;1.50;;;;;;;10.36;100.00;99722.06;5212921;28;20248;-76
2023/12/29 11:19:40;;;;;;;1.95;0.65;;;;;;;10.52;100.00;99721.25;5210909;28;20039;-76
2023/12/29 11:22:10;;;;;;;4.70;1.15;;;;;;;10.36;100.00;99729.91;5214124;28;20024;-75
2023/12/29 11:24:41;;;;;;;3.78;0.80;;;;;;;10.48;100.00;99717.09;5211974;28;20514;-76
2023/12/29 11:27:12;;;;;;;2.53;0.80;;;;;;;10.46;100.00;99715.47;5209780;28;20207;-75
2023/12/29 11:29:43;;;;;;;3.40;1.15;;;;;;;10.54;100.00;99718.56;5211091;28;20033;-75
2023/12/29 11:32:29;;;;;;;4.28;1.05;;;;;;;10.56;100.00;99711.50;5215045;28;20397;-75
2023/12/29 11:35:11;;;;;;;1.83;0.75;;;;;;;10.62;100.00;99711.19;5212824;28;20120;-75
2023/12/29 11:38:03;;;;;;;2.10;0.70;;;;;;;10.69;100.00;99702.13;5210701;28;20032;-76
2023/12/29 11:40:41;;;;;;;3.85;0.73;;;;;;;10.62;100.00;99696.38;5207095;28;20448;-74
2023/12/29 11:43:16;;;;;;;1.27;0.55;;;;;;;10.72;100.00;99697.59;5213011;28;20040;-76
2023/12/29 11:45:46;;;;;;;2.08;0.70;;;;;;;10.84;100.00;99683.09;5207065;28;20112;-75
2023/12/29 11:48:55;;;;;;;2.03;0.60;;;;;;;10.91;100.00;99672.22;5208906;28;20120;-75
2023/12/29 11:51:35;;;;;;;2.92;0.60;;;;;;;10.96;100.00;99674.59;5213636;28;20035;-75
2023/12/29 11:54:07;;;;;;;3.03;1.10;;;;;;;10.89;100.00;99674.06;5210479;28;20031;-76